Crotonville, New York
Current Conditions -  °F | °C
As of 10:56 AM on Monday 24 Nov 2014 (Local Time) from KHPN Reporting Station
Haze Haze  
Wind Chill: 61°   Ceiling: 200
Heat Index: 61°   Visibility: 1.5mi
Dew Point: 59°   Wind: 9mph
Humidity: 93%   Direction: 190°S
Pressure: 29.66"   Gusts: 16mph
Location:  41.1949°N, 73.8307°W
Report Text: KHPN 241556Z 19008G14KT 1 1/2SM BR VV002 16/15 A2966 RMK AO2 SLP046 T01610150
Loading
Personal Weather Stations






























Interactive Weather Map New forecast layout! Learn more

10-Day Weather Forecast

Advertisements
Track Severe Weather on mobile